Time;durP1;ratioP1;P1;durP2;ratioP2;P2;SDS_P1;SDS_P2;PMS_P1;PMS_P2;Temp;Humidity;BMP_temperature;BMP_pressure;BME280_temperature;BME280_humidity;BME280_pressure;Samples;Min_cycle;Max_cycle;Signal;HPM_P1;HPM_P2
2023/04/03 00:04:51;;;;;;;4.97;2.20;;;;;;;0.00;100.00;59042.03;10386034;28;20036;-71
2023/04/03 00:09:51;;;;;;;5.22;1.98;;;;;;;0.00;100.00;59042.03;10387313;28;20475;-69
2023/04/03 00:14:52;;;;;;;5.30;1.97;;;;;;;0.00;100.00;59042.03;10387274;28;20380;-69
2023/04/03 00:19:52;;;;;;;4.03;1.95;;;;;;;0.00;100.00;59042.03;10384601;28;20283;-69
2023/04/03 00:24:52;;;;;;;6.17;2.13;;;;;;;0.00;100.00;59042.03;10374651;28;20024;-69
2023/04/03 00:29:53;;;;;;;6.10;2.23;;;;;;;0.00;100.00;59042.03;10386837;28;20288;-69
2023/04/03 00:34:53;;;;;;;6.38;2.30;;;;;;;0.00;100.00;59042.03;10402509;28;20792;-69
2023/04/03 00:39:54;;;;;;;5.43;2.20;;;;;;;0.00;100.00;59042.03;10386511;28;20021;-69
2023/04/03 00:44:57;;;;;;;4.95;2.13;;;;;;;0.00;100.00;59042.03;10385778;28;20026;-69
2023/04/03 00:49:58;;;;;;;4.28;2.47;;;;;;;0.00;100.00;59042.03;10385619;28;20040;-69
2023/04/03 00:55:03;;;;;;;6.32;2.65;;;;;;;0.00;100.00;59042.03;10386263;28;20030;-69
2023/04/03 01:00:10;;;;;;;3.45;2.50;;;;;;;0.00;100.00;59042.03;10385552;28;20356;-69
2023/04/03 01:05:12;;;;;;;4.63;2.35;;;;;;;0.00;100.00;59042.03;10385263;28;20026;-69
2023/04/03 01:10:15;;;;;;;5.30;2.58;;;;;;;0.00;100.00;59042.03;10385883;28;20030;-70
2023/04/03 01:15:18;;;;;;;5.07;2.60;;;;;;;0.00;100.00;59042.03;10384354;28;20056;-69
2023/04/03 01:20:36;;;;;;;3.67;1.98;;;;;;;0.00;100.00;59042.03;10384169;28;20080;-69
2023/04/03 01:25:48;;;;;;;8.52;3.13;;;;;;;0.00;100.00;59042.03;10387709;28;20021;-69
2023/04/03 01:30:58;;;;;;;6.57;2.70;;;;;;;0.00;100.00;59042.03;10384355;28;20484;-70
2023/04/03 01:35:58;;;;;;;8.65;2.53;;;;;;;0.00;100.00;59042.03;10384266;28;20037;-70
2023/04/03 01:40:59;;;;;;;6.18;2.80;;;;;;;0.00;100.00;59042.03;10382796;28;20464;-70
2023/04/03 01:46:02;;;;;;;4.88;2.53;;;;;;;0.00;100.00;59042.03;10380732;28;20365;-69
2023/04/03 01:51:03;;;;;;;8.45;2.28;;;;;;;0.00;100.00;59042.03;10376022;28;20072;-68
2023/04/03 01:56:04;;;;;;;3.60;2.53;;;;;;;0.00;100.00;59042.03;10382956;28;20030;-70
2023/04/03 02:01:05;;;;;;;3.78;2.20;;;;;;;0.00;100.00;59042.03;10379708;28;20460;-70
2023/04/03 02:06:06;;;;;;;5.80;2.95;;;;;;;0.00;100.00;59042.03;10405459;22;20197;-93
2023/04/03 02:11:30;;;;;;;4.32;2.47;;;;;;;0.00;100.00;59042.03;10369427;28;20046;-91
2023/04/03 02:16:31;;;;;;;4.72;2.92;;;;;;;0.00;100.00;59042.03;10371146;28;20330;-92
2023/04/03 02:21:32;;;;;;;6.70;2.65;;;;;;;0.00;100.00;59042.03;10369007;28;20026;-91
2023/04/03 02:26:37;;;;;;;5.45;2.90;;;;;;;0.00;100.00;59042.03;10374740;28;20054;-91
2023/04/03 02:31:41;;;;;;;9.77;2.63;;;;;;;0.00;100.00;59042.03;10368325;28;20052;-92
2023/04/03 02:42:40;;;;;;;5.68;3.05;;;;;;;0.00;100.00;59042.03;10389458;28;20452;-93
2023/04/03 02:47:40;;;;;;;5.78;3.30;;;;;;;0.00;100.00;59042.03;10397700;28;20400;-94
2023/04/03 02:52:41;;;;;;;6.07;2.97;;;;;;;0.00;100.00;59042.03;10367965;28;20030;-93
2023/04/03 02:57:42;;;;;;;7.95;2.80;;;;;;;0.00;100.00;59042.03;10388050;28;20504;-93
2023/04/03 03:02:43;;;;;;;6.60;3.67;;;;;;;0.00;100.00;59042.03;10382140;28;20471;-93
2023/04/03 03:13:49;;;;;;;4.72;2.47;;;;;;;0.00;100.00;59042.03;10361259;28;20042;-93
2023/04/03 03:24:47;;;;;;;12.43;2.92;;;;;;;0.00;100.00;59042.03;10391235;28;20403;-94
2023/04/03 03:29:48;;;;;;;6.82;2.70;;;;;;;0.00;100.00;59042.03;10391770;28;20037;-93
2023/04/03 03:40:48;;;;;;;8.25;3.25;;;;;;;0.00;100.00;59042.03;10386167;28;20030;-92
2023/04/03 03:45:53;;;;;;;6.30;2.85;;;;;;;0.00;100.00;59042.03;10387847;28;20045;-94
2023/04/03 03:56:51;;;;;;;4.28;2.38;;;;;;;0.00;100.00;59042.03;10371329;28;20034;-92
2023/04/03 04:01:51;;;;;;;14.93;3.60;;;;;;;0.00;100.00;59042.03;10390565;28;20026;-93
2023/04/03 04:12:35;;;;;;;9.75;2.95;;;;;;;0.00;100.00;59042.03;10300067;28;20046;-71
2023/04/03 04:17:36;;;;;;;4.65;2.58;;;;;;;0.00;100.00;59042.03;10283949;28;20018;-73
2023/04/03 04:22:37;;;;;;;5.95;3.65;;;;;;;0.00;100.00;59042.03;10301045;28;20124;-73
2023/04/03 04:27:38;;;;;;;11.40;4.22;;;;;;;0.00;100.00;59042.03;10278760;28;20058;-72
2023/04/03 04:32:38;;;;;;;9.55;3.90;;;;;;;0.00;100.00;59042.03;10297024;28;20034;-71
2023/04/03 04:37:39;;;;;;;12.32;4.05;;;;;;;0.00;100.00;59042.03;10296012;28;20587;-71
2023/04/03 04:42:39;;;;;;;7.45;4.35;;;;;;;0.00;100.00;59042.03;10297914;28;20046;-72
2023/04/03 04:47:40;;;;;;;9.02;4.22;;;;;;;0.00;100.00;59042.03;10298874;28;20018;-70
2023/04/03 04:52:41;;;;;;;12.88;4.32;;;;;;;0.00;100.00;59042.03;10299241;28;20034;-71
2023/04/03 04:57:41;;;;;;;9.07;4.50;;;;;;;0.00;100.00;59042.03;10279831;28;20031;-73
2023/04/03 05:02:42;;;;;;;14.25;8.82;;;;;;;0.00;100.00;59042.03;10297199;28;20026;-71
2023/04/03 05:07:42;;;;;;;10.82;3.85;;;;;;;0.00;100.00;59042.03;10296847;28;20069;-72
2023/04/03 05:12:43;;;;;;;8.30;4.72;;;;;;;0.00;100.00;59042.03;10295485;28;20054;-72
2023/04/03 05:17:43;;;;;;;3.78;2.58;;;;;;;0.00;100.00;59042.03;10282211;28;20030;-72
2023/04/03 05:22:44;;;;;;;9.13;5.72;;;;;;;0.00;100.00;59042.03;10298192;28;20033;-73
2023/04/03 05:27:44;;;;;;;8.77;3.40;;;;;;;0.00;100.00;59042.03;10293477;28;20018;-73
2023/04/03 05:32:45;;;;;;;12.43;3.72;;;;;;;0.00;100.00;59042.03;10294592;28;20034;-73
2023/04/03 05:37:45;;;;;;;10.32;4.28;;;;;;;0.00;100.00;59042.03;10295715;28;20477;-71
2023/04/03 05:42:46;;;;;;;19.27;5.00;;;;;;;0.00;100.00;59042.03;10296478;28;20042;-73
2023/04/03 05:47:47;;;;;;;17.33;5.85;;;;;;;0.00;100.00;59042.03;10280528;28;20022;-73
2023/04/03 05:52:50;;;;;;;8.25;5.22;;;;;;;0.00;100.00;59042.03;10298762;28;20036;-72
2023/04/03 05:57:50;;;;;;;11.20;5.40;;;;;;;0.00;100.00;59042.03;10297882;28;20489;-73
2023/04/03 06:02:50;;;;;;;12.47;6.43;;;;;;;0.00;100.00;59042.03;10298504;28;20022;-71
2023/04/03 06:07:51;;;;;;;15.93;6.77;;;;;;;0.00;100.00;59042.03;10297590;28;20810;-72
2023/04/03 06:12:51;;;;;;;17.35;8.75;;;;;;;0.00;100.00;59042.03;10298462;28;20384;-72
2023/04/03 06:17:52;;;;;;;21.77;11.15;;;;;;;0.00;100.00;59042.03;10298605;28;20543;-72
2023/04/03 06:22:52;;;;;;;15.33;6.27;;;;;;;0.00;100.00;59042.03;10298296;28;20030;-72
2023/04/03 06:27:55;;;;;;;12.07;6.53;;;;;;;0.00;100.00;59042.03;10298524;28;20291;-72
2023/04/03 06:32:56;;;;;;;15.93;4.78;;;;;;;0.00;100.00;59042.03;10298990;28;20032;-72
2023/04/03 06:37:57;;;;;;;7.15;4.50;;;;;;;0.00;100.00;59042.03;10298446;28;20026;-73
2023/04/03 06:42:57;;;;;;;12.93;4.82;;;;;;;0.00;100.00;59042.03;10298596;28;20038;-72
2023/04/03 06:47:57;;;;;;;13.70;5.27;;;;;;;0.00;100.00;59042.03;10298025;28;20090;-72
2023/04/03 06:52:58;;;;;;;22.08;4.57;;;;;;;0.00;100.00;59042.03;10298310;28;20759;-73
2023/04/03 06:57:59;;;;;;;8.82;4.35;;;;;;;0.00;100.00;59042.03;10297418;28;20104;-72
2023/04/03 07:02:59;;;;;;;14.07;5.70;;;;;;;0.00;100.00;59042.03;10279511;28;20026;-72
2023/04/03 07:08:00;;;;;;;17.70;5.70;;;;;;;0.00;100.00;59042.03;10295865;28;20133;-71
2023/04/03 07:13:01;;;;;;;19.42;6.70;;;;;;;0.00;100.00;59042.03;10302679;28;20520;-73
2023/04/03 07:18:02;;;;;;;8.38;5.75;;;;;;;0.00;100.00;59042.03;10304288;28;20528;-72
2023/04/03 07:23:02;;;;;;;17.35;7.72;;;;;;;0.00;100.00;59042.03;10303099;28;20378;-74
2023/04/03 07:28:03;;;;;;;12.40;7.13;;;;;;;0.00;100.00;59042.03;10304430;28;20066;-74
2023/04/03 07:33:04;;;;;;;24.48;10.10;;;;;;;0.00;100.00;59042.03;10306301;28;20022;-77
2023/04/03 07:38:04;;;;;;;17.95;9.48;;;;;;;0.00;100.00;59042.03;10277212;28;20027;-74
2023/04/03 07:43:05;;;;;;;22.17;9.88;;;;;;;0.00;100.00;59042.03;10296778;28;20112;-75
2023/04/03 07:48:06;;;;;;;27.65;12.68;;;;;;;0.00;100.00;59042.03;10298523;28;20493;-76
2023/04/03 07:53:07;;;;;;;32.42;13.38;;;;;;;0.00;100.00;59042.03;10298687;28;20038;-75
2023/04/03 07:58:10;;;;;;;42.85;14.50;;;;;;;0.00;100.00;59042.03;10281845;28;20022;-74
2023/04/03 08:03:12;;;;;;;39.63;15.02;;;;;;;0.00;100.00;59042.03;10298938;28;20458;-75
2023/04/03 08:08:18;;;;;;;31.27;14.88;;;;;;;0.00;100.00;59042.03;10297415;28;20042;-75
2023/04/03 08:13:19;;;;;;;37.08;15.60;;;;;;;0.00;100.00;59042.03;10298150;28;20479;-76
2023/04/03 08:18:21;;;;;;;32.03;15.13;;;;;;;0.00;100.00;59042.03;10298533;28;20037;-74
2023/04/03 08:23:22;;;;;;;38.17;15.43;;;;;;;0.00;100.00;59042.03;10298705;28;20523;-76
2023/04/03 08:28:22;;;;;;;28.00;16.17;;;;;;;0.00;100.00;59042.03;10296729;28;20045;-75
2023/04/03 08:33:22;;;;;;;28.10;14.25;;;;;;;0.00;100.00;59042.03;10296516;28;20289;-74
2023/04/03 08:38:23;;;;;;;36.28;14.43;;;;;;;0.00;100.00;59042.03;10297660;28;20034;-73
2023/04/03 08:43:56;;;;;;;26.75;12.43;;;;;;;0.00;100.00;59042.03;10296035;28;20054;-73
2023/04/03 08:48:59;;;;;;;35.20;12.40;;;;;;;0.00;100.00;59042.03;10292303;28;20042;-72
2023/04/03 08:54:08;;;;;;;24.67;12.27;;;;;;;0.00;100.00;59042.03;10295395;28;20575;-72
2023/04/03 08:59:13;;;;;;;30.25;14.43;;;;;;;0.00;100.00;59042.03;10296501;28;20030;-74
2023/04/03 09:04:15;;;;;;;25.33;11.05;;;;;;;0.00;100.00;59042.03;10296429;28;20045;-73
2023/04/03 09:09:38;;;;;;;23.45;10.77;;;;;;;0.00;100.00;59042.03;10296025;28;20078;-71
2023/04/03 09:14:46;;;;;;;22.25;10.63;;;;;;;0.00;100.00;59042.03;10278344;28;20157;-70
2023/04/03 09:20:26;;;;;;;30.08;12.68;;;;;;;0.00;100.00;59042.03;10299805;28;20026;-71
2023/04/03 09:25:35;;;;;;;14.93;8.82;;;;;;;0.00;100.00;59042.03;10296616;28;20072;-70
2023/04/03 09:30:37;;;;;;;16.08;8.85;;;;;;;0.00;100.00;59042.03;10297940;28;20428;-71
2023/04/03 09:35:40;;;;;;;11.13;5.68;;;;;;;0.00;100.00;59042.03;10282365;28;20450;-69
2023/04/03 09:41:02;;;;;;;11.52;5.32;;;;;;;0.00;100.00;59042.03;10282913;28;20037;-70
2023/04/03 09:46:32;;;;;;;9.85;4.15;;;;;;;0.00;100.00;59042.03;10283305;28;20030;-71
2023/04/03 09:51:33;;;;;;;10.23;3.35;;;;;;;0.00;100.00;59042.03;10294728;28;20030;-71
2023/04/03 09:56:34;;;;;;;8.02;3.30;;;;;;;0.00;100.00;59042.03;10298190;28;20035;-70
2023/04/03 10:01:37;;;;;;;10.90;4.78;;;;;;;0.00;100.00;59042.03;10299266;28;20049;-70
2023/04/03 10:06:43;;;;;;;8.38;3.85;;;;;;;0.00;100.00;59042.03;10299250;28;20488;-70
2023/04/03 10:11:57;;;;;;;12.63;5.18;;;;;;;0.00;100.00;59042.03;10280750;28;20050;-70
2023/04/03 10:17:26;;;;;;;10.35;3.47;;;;;;;0.00;100.00;59042.03;10299209;28;20074;-70
2023/04/03 10:22:29;;;;;;;8.77;3.38;;;;;;;0.00;100.00;59042.03;10292421;28;20030;-71
2023/04/03 10:27:43;;;;;;;6.32;3.35;;;;;;;0.00;100.00;59042.03;10299139;28;20641;-67
2023/04/03 10:32:59;;;;;;;14.23;3.13;;;;;;;0.00;100.00;59042.03;10299360;28;20057;-72
2023/04/03 10:38:28;;;;;;;7.10;3.75;;;;;;;0.00;100.00;59042.03;10298889;28;20724;-71
2023/04/03 10:43:55;;;;;;;5.75;2.78;;;;;;;0.00;100.00;59042.03;10298405;28;20046;-72
2023/04/03 10:49:01;;;;;;;7.72;2.03;;;;;;;0.00;100.00;59042.03;10305895;28;20105;-72
2023/04/03 10:54:20;;;;;;;9.52;2.50;;;;;;;0.00;100.00;59042.03;10306636;28;20377;-72
2023/04/03 10:59:38;;;;;;;4.90;2.42;;;;;;;0.00;100.00;59042.03;10307092;28;20038;-71
2023/04/03 11:04:43;;;;;;;7.43;1.85;;;;;;;0.00;100.00;59042.03;10306732;28;20105;-72
2023/04/03 11:09:48;;;;;;;2.42;2.00;;;;;;;0.00;100.00;59042.03;10304836;28;20116;-72
2023/04/03 11:14:51;;;;;;;3.53;2.50;;;;;;;0.00;100.00;59042.03;10305219;28;20026;-72
2023/04/03 11:20:00;;;;;;;4.75;2.30;;;;;;;0.00;100.00;59042.03;10303388;28;20041;-72
2023/04/03 11:25:19;;;;;;;5.65;3.60;;;;;;;0.00;100.00;59042.03;10302414;28;20428;-72
2023/04/03 11:30:56;;;;;;;6.00;3.85;;;;;;;0.00;100.00;59042.03;10304644;28;20030;-72
2023/04/03 11:36:22;;;;;;;4.65;3.38;;;;;;;0.00;100.00;59042.03;10262424;28;20038;-73
2023/04/03 11:41:31;;;;;;;7.45;3.80;;;;;;;0.00;100.00;59042.03;10293308;28;20504;-71
2023/04/03 11:46:53;;;;;;;3.88;2.63;;;;;;;0.00;100.00;59042.03;10303946;28;20030;-72
2023/04/03 11:51:53;;;;;;;6.30;5.00;;;;;;;0.00;100.00;59042.03;10297272;28;20022;-71
2023/04/03 11:56:54;;;;;;;8.43;3.58;;;;;;;0.00;100.00;59042.03;10298974;28;20092;-71
2023/04/03 12:01:57;;;;;;;4.47;3.42;;;;;;;0.00;100.00;59042.03;10303169;28;20026;-71
2023/04/03 12:07:13;;;;;;;7.72;4.20;;;;;;;0.00;100.00;59042.03;10286158;28;20077;-72
2023/04/03 12:12:31;;;;;;;7.80;4.72;;;;;;;0.00;100.00;59042.03;10303127;28;20444;-73
2023/04/03 12:17:31;;;;;;;6.28;4.03;;;;;;;0.00;100.00;59042.03;10302492;28;20039;-71
2023/04/03 12:22:32;;;;;;;6.03;3.63;;;;;;;0.00;100.00;59042.03;10302677;28;20417;-71
2023/04/03 12:27:42;;;;;;;9.25;4.47;;;;;;;0.00;100.00;59042.03;10303230;28;20034;-71
2023/04/03 12:32:55;;;;;;;6.47;4.30;;;;;;;0.00;100.00;59042.03;10302712;28;20041;-72
2023/04/03 12:38:32;;;;;;;7.45;4.60;;;;;;;0.00;100.00;59042.03;10301855;28;20030;-72
2023/04/03 12:43:42;;;;;;;7.88;4.72;;;;;;;0.00;100.00;59042.03;10302017;28;20413;-72
2023/04/03 12:48:47;;;;;;;7.78;5.60;;;;;;;0.00;100.00;59042.03;10302446;28;20034;-70
2023/04/03 12:53:49;;;;;;;10.45;5.50;;;;;;;0.00;100.00;59042.03;10284483;28;20755;-71
2023/04/03 12:58:52;;;;;;;7.80;5.00;;;;;;;0.00;100.00;59042.03;10301766;28;20041;-71
2023/04/03 13:03:57;;;;;;;9.02;5.40;;;;;;;0.00;100.00;59042.03;10301420;28;20045;-70
2023/04/03 13:09:00;;;;;;;6.30;4.65;;;;;;;0.00;100.00;59042.03;10300899;28;20582;-71
2023/04/03 13:14:15;;;;;;;8.05;4.57;;;;;;;0.00;100.00;59042.03;10282346;28;20022;-72
2023/04/03 13:19:17;;;;;;;11.50;5.82;;;;;;;0.00;100.00;59042.03;10293843;28;20516;-72
2023/04/03 13:24:17;;;;;;;8.20;4.95;;;;;;;0.00;100.00;59042.03;10292638;28;20026;-72
2023/04/03 13:29:24;;;;;;;8.82;6.00;;;;;;;0.00;100.00;59042.03;10294353;28;20042;-72
2023/04/03 13:34:27;;;;;;;20.13;6.72;;;;;;;0.00;100.00;59042.03;10275626;28;20129;-72
2023/04/03 13:39:32;;;;;;;9.55;6.75;;;;;;;0.00;100.00;59042.03;10277907;28;20391;-70
2023/04/03 13:44:36;;;;;;;13.25;7.75;;;;;;;0.00;100.00;59042.03;10276362;28;20036;-71
2023/04/03 13:49:43;;;;;;;10.73;7.15;;;;;;;0.00;100.00;59042.03;10274923;28;20030;-74
2023/04/03 13:54:47;;;;;;;11.27;6.70;;;;;;;0.00;100.00;59042.03;10292514;28;20519;-72
2023/04/03 13:59:48;;;;;;;10.43;6.18;;;;;;;0.00;100.00;59042.03;10294489;28;20030;-71
2023/04/03 14:04:58;;;;;;;17.58;7.85;;;;;;;0.00;100.00;59042.03;10292575;28;20034;-72
2023/04/03 14:09:58;;;;;;;11.63;7.57;;;;;;;0.00;100.00;59042.03;10293614;28;20050;-72
2023/04/03 14:15:05;;;;;;;15.57;8.43;;;;;;;0.00;100.00;59042.03;10293485;28;20560;-72
2023/04/03 14:20:06;;;;;;;14.45;8.25;;;;;;;0.00;100.00;59042.03;10292313;28;20091;-73
2023/04/03 14:25:07;;;;;;;10.98;8.07;;;;;;;0.00;100.00;59042.03;10275529;28;20386;-73
2023/04/03 14:30:15;;;;;;;12.95;8.80;;;;;;;0.00;100.00;59042.03;10292795;28;20030;-72
2023/04/03 14:35:17;;;;;;;16.80;9.45;;;;;;;0.00;100.00;59042.03;10293437;28;20030;-72
2023/04/03 14:40:22;;;;;;;13.23;9.00;;;;;;;0.00;100.00;59042.03;10297992;28;20438;-71
2023/04/03 14:45:24;;;;;;;10.52;7.75;;;;;;;0.00;100.00;59042.03;10297127;28;20041;-72
2023/04/03 14:50:26;;;;;;;11.93;8.57;;;;;;;0.00;100.00;59042.03;10295819;28;20587;-71
2023/04/03 14:55:27;;;;;;;14.80;8.32;;;;;;;0.00;100.00;59042.03;10297187;28;20089;-72
2023/04/03 15:00:28;;;;;;;13.70;7.60;;;;;;;0.00;100.00;59042.03;10297035;28;20367;-71
2023/04/03 15:05:28;;;;;;;12.40;7.97;;;;;;;0.00;100.00;59042.03;10297175;28;20023;-71
2023/04/03 15:10:30;;;;;;;9.38;6.13;;;;;;;0.00;100.00;59042.03;10297081;28;20058;-71
2023/04/03 15:15:33;;;;;;;10.80;6.38;;;;;;;0.00;100.00;59042.03;10291545;28;20030;-72
2023/04/03 15:20:34;;;;;;;9.52;6.35;;;;;;;0.00;100.00;59042.03;10297781;28;20030;-71
2023/04/03 15:25:34;;;;;;;7.65;5.80;;;;;;;0.00;100.00;59042.03;10288603;28;20023;-73
2023/04/03 15:30:38;;;;;;;10.15;6.40;;;;;;;0.00;100.00;59042.03;10296383;28;20037;-72
2023/04/03 15:35:39;;;;;;;12.60;6.72;;;;;;;0.00;100.00;59042.03;10303115;28;20774;-72
2023/04/03 15:40:39;;;;;;;9.45;6.47;;;;;;;0.00;100.00;59042.03;10303701;28;20064;-71
2023/04/03 15:45:40;;;;;;;7.35;5.75;;;;;;;0.00;100.00;59042.03;10301694;28;20438;-70
2023/04/03 15:50:41;;;;;;;10.18;6.50;;;;;;;0.00;100.00;59042.03;10303502;28;20118;-71
2023/04/03 15:55:41;;;;;;;14.45;5.57;;;;;;;0.00;100.00;59042.03;10295236;28;20366;-71
2023/04/03 16:00:42;;;;;;;9.38;6.15;;;;;;;0.00;100.00;59042.03;10303626;28;20076;-72
2023/04/03 16:05:42;;;;;;;9.93;7.22;;;;;;;0.00;100.00;59042.03;10271681;28;20559;-72
2023/04/03 16:10:45;;;;;;;14.85;8.27;;;;;;;0.00;100.00;59042.03;10300934;28;20066;-72
2023/04/03 16:15:46;;;;;;;17.45;8.45;;;;;;;0.00;100.00;59042.03;10302889;28;20508;-72
2023/04/03 16:20:47;;;;;;;14.18;6.80;;;;;;;0.00;100.00;59042.03;10303029;28;20396;-72
2023/04/03 16:25:49;;;;;;;12.50;7.25;;;;;;;0.00;100.00;59042.03;10299562;28;20026;-72
2023/04/03 16:30:50;;;;;;;9.32;6.25;;;;;;;0.00;100.00;59042.03;10302651;28;20477;-71
2023/04/03 16:35:51;;;;;;;12.35;6.47;;;;;;;0.00;100.00;59042.03;10297205;28;20082;-71
2023/04/03 16:40:56;;;;;;;9.82;6.20;;;;;;;0.00;100.00;59042.03;10287894;28;20022;-71
2023/04/03 16:45:58;;;;;;;13.23;6.07;;;;;;;0.00;100.00;59042.03;10306653;28;20461;-72
2023/04/03 16:50:59;;;;;;;8.60;5.40;;;;;;;0.00;100.00;59042.03;10284498;28;20041;-72
2023/04/03 16:56:00;;;;;;;13.38;7.03;;;;;;;0.00;100.00;59042.03;10290383;28;20038;-71
2023/04/03 17:01:09;;;;;;;11.57;7.13;;;;;;;0.00;100.00;59042.03;10292541;28;20040;-70
2023/04/03 17:06:15;;;;;;;7.93;3.85;;;;;;;0.00;100.00;59042.03;10290562;28;20018;-70
2023/04/03 17:11:17;;;;;;;8.40;4.78;;;;;;;0.00;100.00;59042.03;10290947;28;20060;-72
2023/04/03 17:16:19;;;;;;;8.98;5.50;;;;;;;0.00;100.00;59042.03;10291644;28;20145;-70
2023/04/03 17:21:21;;;;;;;7.25;5.53;;;;;;;0.00;100.00;59042.03;10291583;28;20173;-77
2023/04/03 17:26:21;;;;;;;7.80;5.15;;;;;;;0.00;100.00;59042.03;10273327;28;20030;-74
2023/04/03 17:31:21;;;;;;;11.38;6.65;;;;;;;0.00;100.00;59042.03;10290648;28;20430;-69
2023/04/03 17:36:22;;;;;;;8.70;5.32;;;;;;;0.00;100.00;59042.03;10291689;28;20034;-75
2023/04/03 17:41:23;;;;;;;10.00;6.72;;;;;;;0.00;100.00;59042.03;10289708;28;20113;-74
2023/04/03 17:46:24;;;;;;;9.13;5.28;;;;;;;0.00;100.00;59042.03;10280125;28;20030;-74
2023/04/03 17:51:27;;;;;;;7.63;5.47;;;;;;;0.00;100.00;59042.03;10266291;28;20417;-72
2023/04/03 17:56:27;;;;;;;14.00;6.65;;;;;;;0.00;100.00;59042.03;10282774;28;20041;-72
2023/04/03 18:01:30;;;;;;;12.35;6.45;;;;;;;0.00;100.00;59042.03;10284619;28;20050;-73
2023/04/03 18:06:37;;;;;;;8.50;4.68;;;;;;;0.00;100.00;59042.03;10285529;28;20417;-73
2023/04/03 18:11:38;;;;;;;7.18;4.38;;;;;;;0.00;100.00;59042.03;10285102;28;20121;-74
2023/04/03 18:16:38;;;;;;;6.30;3.63;;;;;;;0.00;100.00;59042.03;10280394;28;20052;-76
2023/04/03 18:21:39;;;;;;;6.43;3.42;;;;;;;0.00;100.00;59042.03;10285431;28;20477;-75
2023/04/03 18:26:41;;;;;;;6.38;3.33;;;;;;;0.00;100.00;59042.03;10288136;28;20037;-72
2023/04/03 18:31:46;;;;;;;5.93;3.80;;;;;;;0.00;100.00;59042.03;10284258;28;20096;-73
2023/04/03 18:36:47;;;;;;;6.07;4.18;;;;;;;0.00;100.00;59042.03;10284953;28;20031;-74
2023/04/03 18:41:49;;;;;;;4.57;3.13;;;;;;;0.00;100.00;59042.03;10286350;28;20038;-73
2023/04/03 18:46:52;;;;;;;5.35;2.70;;;;;;;0.00;100.00;59042.03;10286070;28;20089;-75
2023/04/03 18:51:53;;;;;;;16.63;2.67;;;;;;;0.00;100.00;59042.03;10285760;28;20030;-71
2023/04/03 18:56:54;;;;;;;5.00;2.85;;;;;;;0.00;100.00;59042.03;10268180;28;20077;-73
2023/04/03 19:01:55;;;;;;;8.23;2.70;;;;;;;0.00;100.00;59042.03;10284497;28;20061;-71
2023/04/03 19:06:55;;;;;;;3.72;2.35;;;;;;;0.00;100.00;59042.03;10289457;28;20457;-71
2023/04/03 19:11:56;;;;;;;5.57;2.58;;;;;;;0.00;100.00;59042.03;10293135;28;20081;-71
2023/04/03 19:16:57;;;;;;;4.47;1.85;;;;;;;0.00;100.00;59042.03;10293510;28;20784;-72
2023/04/03 19:21:57;;;;;;;3.55;1.33;;;;;;;0.00;100.00;59042.03;10292737;28;20066;-71
2023/04/03 19:26:57;;;;;;;3.47;1.80;;;;;;;0.00;100.00;59042.03;10290802;28;20397;-71
2023/04/03 19:31:58;;;;;;;1.50;1.30;;;;;;;0.00;100.00;59042.03;10292010;28;20347;-70
2023/04/03 19:36:58;;;;;;;2.20;1.75;;;;;;;0.00;100.00;59042.03;10289716;28;21056;-71
2023/04/03 19:42:01;;;;;;;3.25;1.98;;;;;;;0.00;100.00;59042.03;10290039;28;20034;-71
2023/04/03 19:47:02;;;;;;;2.28;1.40;;;;;;;0.00;100.00;59042.03;10290416;28;20030;-70
2023/04/03 19:52:03;;;;;;;1.95;1.60;;;;;;;0.00;100.00;59042.03;10289137;28;20767;-72
2023/04/03 19:57:04;;;;;;;3.22;2.13;;;;;;;0.00;100.00;59042.03;10290019;28;20034;-72
2023/04/03 20:02:05;;;;;;;3.15;1.80;;;;;;;0.00;100.00;59042.03;10266844;28;20030;-73
2023/04/03 20:07:05;;;;;;;4.35;2.25;;;;;;;0.00;100.00;59042.03;10284387;28;20034;-71
2023/04/03 20:12:08;;;;;;;5.30;1.90;;;;;;;0.00;100.00;59042.03;10287155;28;20050;-70
2023/04/03 20:17:08;;;;;;;2.47;1.73;;;;;;;0.00;100.00;59042.03;10289901;28;20035;-71
2023/04/03 20:22:09;;;;;;;2.28;1.65;;;;;;;0.00;100.00;59042.03;10278189;28;20045;-70
2023/04/03 20:27:09;;;;;;;5.07;1.88;;;;;;;0.00;100.00;59042.03;10300868;28;20112;-70
2023/04/03 20:32:13;;;;;;;2.85;1.38;;;;;;;0.00;100.00;59042.03;10300363;28;20032;-70
2023/04/03 20:37:18;;;;;;;4.30;1.67;;;;;;;0.00;100.00;59042.03;10313018;28;20485;-70
2023/04/03 20:42:20;;;;;;;3.55;1.95;;;;;;;0.00;100.00;59042.03;10302181;28;20026;-69
2023/04/03 20:47:20;;;;;;;4.00;2.13;;;;;;;0.00;100.00;59042.03;10302270;28;20728;-72
2023/04/03 20:52:20;;;;;;;6.50;2.63;;;;;;;0.00;100.00;59042.03;10300123;28;20144;-70
2023/04/03 20:57:21;;;;;;;1.33;1.15;;;;;;;0.00;100.00;59042.03;10301250;28;20118;-71
2023/04/03 21:02:22;;;;;;;2.65;1.15;;;;;;;0.00;100.00;59042.03;10301514;28;20034;-70
2023/04/03 21:08:00;;;;;;;2.65;1.15;;;;;;;0.00;100.00;59042.03;10300532;28;20034;-71
2023/04/03 21:13:38;;;;;;;1.98;1.45;;;;;;;0.00;100.00;59042.03;10291300;28;20454;-71
2023/04/03 21:18:52;;;;;;;2.30;1.58;;;;;;;0.00;100.00;59042.03;10300276;28;20681;-71
2023/04/03 21:23:54;;;;;;;2.63;1.50;;;;;;;0.00;100.00;59042.03;10299923;28;20022;-71
2023/04/03 21:28:55;;;;;;;2.65;1.88;;;;;;;0.00;100.00;59042.03;10299327;28;20022;-71
2023/04/03 21:33:56;;;;;;;2.63;1.80;;;;;;;0.00;100.00;59042.03;10282598;28;20034;-70
2023/04/03 21:38:56;;;;;;;5.38;2.92;;;;;;;0.00;100.00;59042.03;10299126;28;20031;-70
2023/04/03 21:43:57;;;;;;;9.18;4.10;;;;;;;0.00;100.00;59042.03;10297658;28;20041;-70
2023/04/03 21:48:58;;;;;;;5.65;3.47;;;;;;;0.00;100.00;59042.03;10281273;28;20053;-70
2023/04/03 21:53:58;;;;;;;4.70;2.22;;;;;;;0.00;100.00;59042.03;10281659;28;20041;-70
2023/04/03 21:59:02;;;;;;;5.95;3.45;;;;;;;0.00;100.00;59042.03;10298292;28;20038;-71
2023/04/03 22:04:03;;;;;;;4.55;3.08;;;;;;;0.00;100.00;59042.03;10298423;28;20038;-71
2023/04/03 22:09:04;;;;;;;5.30;2.67;;;;;;;0.00;100.00;59042.03;10297885;28;20429;-70
2023/04/03 22:14:04;;;;;;;3.05;1.80;;;;;;;0.00;100.00;59042.03;10297821;28;20493;-70
2023/04/03 22:19:06;;;;;;;6.45;2.58;;;;;;;0.00;100.00;59042.03;10297958;28;20103;-70
2023/04/03 22:24:06;;;;;;;4.40;2.80;;;;;;;0.00;100.00;59042.03;10291798;28;20109;-70
2023/04/03 22:29:07;;;;;;;4.57;2.70;;;;;;;0.00;100.00;59042.03;10292620;28;20378;-71
2023/04/03 22:34:07;;;;;;;7.60;2.35;;;;;;;0.00;100.00;59042.03;10297938;28;20018;-71
2023/04/03 22:39:09;;;;;;;3.58;2.00;;;;;;;0.00;100.00;59042.03;10298389;28;20093;-71
2023/04/03 22:44:11;;;;;;;3.03;1.55;;;;;;;0.00;100.00;59042.03;10287330;28;20054;-70
2023/04/03 22:49:12;;;;;;;3.15;1.58;;;;;;;0.00;100.00;59042.03;10306218;28;20433;-71
2023/04/03 22:54:12;;;;;;;2.38;2.00;;;;;;;0.00;100.00;59042.03;10306104;28;20148;-70
2023/04/03 22:59:12;;;;;;;2.80;1.27;;;;;;;0.00;100.00;59042.03;10304894;28;20026;-69
2023/04/03 23:04:13;;;;;;;2.08;1.33;;;;;;;0.00;100.00;59042.03;10305966;28;20132;-70
2023/04/03 23:09:13;;;;;;;3.22;1.73;;;;;;;0.00;100.00;59042.03;10304924;28;20073;-69
2023/04/03 23:14:14;;;;;;;3.67;1.90;;;;;;;0.00;100.00;59042.03;10304907;28;20030;-72
2023/04/03 23:19:14;;;;;;;2.83;1.85;;;;;;;0.00;100.00;59042.03;10304549;28;20278;-69
2023/04/03 23:24:15;;;;;;;4.25;2.60;;;;;;;0.00;100.00;59042.03;10304210;28;20469;-70
2023/04/03 23:29:16;;;;;;;4.75;2.63;;;;;;;0.00;100.00;59042.03;10297642;28;20026;-71
2023/04/03 23:34:16;;;;;;;3.85;2.63;;;;;;;0.00;100.00;59042.03;10304128;28;20027;-71
2023/04/03 23:39:18;;;;;;;7.00;3.15;;;;;;;0.00;100.00;59042.03;10304016;28;20014;-70
2023/04/03 23:44:20;;;;;;;8.02;3.33;;;;;;;0.00;100.00;59042.03;10298112;28;20077;-70
2023/04/03 23:49:20;;;;;;;4.93;3.33;;;;;;;0.00;100.00;59042.03;10303869;28;20034;-71
2023/04/03 23:54:21;;;;;;;5.60;3.60;;;;;;;0.00;100.00;59042.03;10301301;28;20030;-71
2023/04/03 23:59:22;;;;;;;4.75;2.55;;;;;;;0.00;100.00;59042.03;10301297;28;20029;-71
